Summary for KCOGRAND2

Redlands, Southcamp Road & Dakota Circle, Grand Junction, CO 81507
Join the PWSweather.com Network
View data in metric units
Latest Conditions
Updated 12:53:40 PM MDT Thursday, Apr 24, 2014
Data Currently Today's Max Today's Min Today's Average
Temperature 58.1°F14.5°C 58.5°F14.7°C 33.3°F0.7°C 44.5°F6.9°C
Dew Point -5537.2°C 6.1°F-14.4°C -12.3°F-24.6°C -6.3°F-21.3°C
Winds 5.0 mph W8.0 kmh W 8.0 mph N12.9 kmh N CalmCalm 3.4 mph5.5 kmh
Wind Gusts 11.2 mph18.0 kmh 12.1 mph19.5 kmh -- 6.8 mph10.9 kmh
Humidity - 30% 11% 14%
Pressure 25.10 in850.0 mb 25.16 in852.0 mb 25.04 in848.0 mb 25.11 in850.3 mb
Precipitation 0.00 in0.0 mm - - 0.00 in0.0 mm
Trends
 
Station Profile
Redlands, Southcamp Road & Dakota CircleGrand Junction, CO 81507

Lat: 39.055, Lon: -108.637
Elevation: 4870
Station Type: RadioShack WX200

Detailed Summary for Thu, Apr 24, 2014
Hour (MDT) Temperature Dew Point Humidity Winds Wind Gusts Pressure Precip Precip Rate Daily Precip Total
12:53 PM 58.1°F14.5°C -5537.2°C - 5.0 mph W8.0 kmh W 11.2 mph18.0 kmh 25.10 in850.0 mb 0.00 in0.0 mm 0.00 in/hr0.0 mm/hr 0.00 in0.0 mm
12:48 PM 57.9°F14.4°C -5537.2°C - 3.0 mph NW4.8 kmh NW 7.8 mph12.6 kmh 25.10 in850.0 mb 0.00 in0.0 mm 0.00 in/hr0.0 mm/hr 0.00 in0.0 mm
12:43 PM 58.5°F14.7°C -5537.2°C - 3.0 mph NW4.8 kmh NW 6.3 mph10.1 kmh 25.10 in850.0 mb 0.00 in0.0 mm 0.00 in/hr0.0 mm/hr 0.00 in0.0 mm
12:38 PM 58.1°F14.5°C -5537.2°C - 3.0 mph WNW4.8 kmh WNW 8.3 mph13.4 kmh 25.10 in850.0 mb 0.00 in0.0 mm 0.00 in/hr0.0 mm/hr 0.00 in0.0 mm
12:33 PM 56.8°F13.8°C -5537.2°C - 3.0 mph NW4.8 kmh NW 5.4 mph8.7 kmh 25.10 in850.0 mb 0.00 in0.0 mm 0.00 in/hr0.0 mm/hr 0.00 in0.0 mm
12:28 PM 56.1°F13.4°C -5537.2°C - 4.0 mph WNW6.4 kmh WNW 6.7 mph10.8 kmh 25.10 in850.0 mb 0.00 in0.0 mm 0.00 in/hr0.0 mm/hr 0.00 in0.0 mm
12:23 PM 55.9°F13.3°C -5537.2°C - 5.0 mph WNW8.0 kmh WNW 9.2 mph14.8 kmh 25.10 in850.0 mb 0.00 in0.0 mm 0.00 in/hr0.0 mm/hr 0.00 in0.0 mm
12:18 PM 56.3°F13.5°C -5537.2°C - 4.0 mph WNW6.4 kmh WNW 9.2 mph14.8 kmh 25.10 in850.0 mb 0.00 in0.0 mm 0.00 in/hr0.0 mm/hr 0.00 in0.0 mm
12:13 PM 56.3°F13.5°C -5537.2°C - 5.0 mph WNW8.0 kmh WNW 8.3 mph13.4 kmh 25.10 in850.0 mb 0.00 in0.0 mm 0.00 in/hr0.0 mm/hr 0.00 in0.0 mm
12:08 PM 56.7°F13.7°C -5537.2°C - 5.0 mph W8.0 kmh W 9.6 mph15.4 kmh 25.10 in850.0 mb 0.00 in0.0 mm 0.00 in/hr0.0 mm/hr 0.00 in0.0 mm
12:03 PM 56.7°F13.7°C -5537.2°C - 4.0 mph W6.4 kmh W 8.7 mph14.0 kmh 25.13 in851.0 mb 0.00 in0.0 mm 0.00 in/hr0.0 mm/hr 0.00 in0.0 mm
11:58 AM 55.9°F13.3°C -5537.2°C - 3.0 mph W4.8 kmh W 7.4 mph11.9 kmh 25.13 in851.0 mb 0.00 in0.0 mm 0.00 in/hr0.0 mm/hr 0.00 in0.0 mm
11:53 AM 56.3°F13.5°C -5537.2°C - 4.0 mph WSW6.4 kmh WSW 6.7 mph10.8 kmh 25.13 in851.0 mb 0.00 in0.0 mm 0.00 in/hr0.0 mm/hr 0.00 in0.0 mm
11:48 AM 56.1°F13.4°C -5537.2°C - 6.0 mph W9.7 kmh W 8.3 mph13.4 kmh 25.13 in851.0 mb 0.00 in0.0 mm 0.00 in/hr0.0 mm/hr 0.00 in0.0 mm
11:43 AM 55.2°F12.9°C -5537.2°C - 5.0 mph NW8.0 kmh NW 11.2 mph18.0 kmh 25.13 in851.0 mb 0.00 in0.0 mm 0.00 in/hr0.0 mm/hr 0.00 in0.0 mm
11:38 AM 55.0°F12.8°C -5537.2°C - 3.0 mph N4.8 kmh N 7.4 mph11.9 kmh 25.13 in851.0 mb 0.00 in0.0 mm 0.00 in/hr0.0 mm/hr 0.00 in0.0 mm
11:33 AM 54.9°F12.7°C -5537.2°C - 3.0 mph N4.8 kmh N 6.3 mph10.1 kmh 25.13 in851.0 mb 0.00 in0.0 mm 0.00 in/hr0.0 mm/hr 0.00 in0.0 mm
11:28 AM 54.7°F12.6°C -5537.2°C - 3.0 mph NNW4.8 kmh NNW 6.3 mph10.1 kmh 25.13 in851.0 mb 0.00 in0.0 mm 0.00 in/hr0.0 mm/hr 0.00 in0.0 mm
11:23 AM 53.2°F11.8°C -5537.2°C - 4.0 mph N6.4 kmh N 7.4 mph11.9 kmh 25.13 in851.0 mb 0.00 in0.0 mm 0.00 in/hr0.0 mm/hr 0.00 in0.0 mm
11:18 AM 53.1°F11.7°C -5537.2°C - 4.0 mph N6.4 kmh N 7.4 mph11.9 kmh 25.13 in851.0 mb 0.00 in0.0 mm 0.00 in/hr0.0 mm/hr 0.00 in0.0 mm
11:13 AM 54.0°F12.2°C -5537.2°C - 4.0 mph N6.4 kmh N 7.8 mph12.6 kmh 25.13 in851.0 mb 0.00 in0.0 mm 0.00 in/hr0.0 mm/hr 0.00 in0.0 mm
11:08 AM 53.1°F11.7°C -5537.2°C - 4.0 mph N6.4 kmh N 9.2 mph14.8 kmh 25.13 in851.0 mb 0.00 in0.0 mm 0.00 in/hr0.0 mm/hr 0.00 in0.0 mm
11:03 AM 53.2°F11.8°C -5537.2°C - 4.0 mph N6.4 kmh N 10.5 mph16.9 kmh 25.13 in851.0 mb 0.00 in0.0 mm 0.00 in/hr0.0 mm/hr 0.00 in0.0 mm
10:58 AM 53.1°F11.7°C -5537.2°C - 4.0 mph N6.4 kmh N 8.7 mph14.0 kmh 25.13 in851.0 mb 0.00 in0.0 mm 0.00 in/hr0.0 mm/hr 0.00 in0.0 mm
10:53 AM 52.0°F11.1°C -5537.2°C - 5.0 mph N8.0 kmh N 8.3 mph13.4 kmh 25.13 in851.0 mb 0.00 in0.0 mm 0.00 in/hr0.0 mm/hr 0.00 in0.0 mm
10:48 AM 52.0°F11.1°C -5537.2°C - 5.0 mph N8.0 kmh N 10.1 mph16.3 kmh 25.13 in851.0 mb 0.00 in0.0 mm 0.00 in/hr0.0 mm/hr 0.00 in0.0 mm
10:43 AM 51.3°F10.7°C -5537.2°C - 5.0 mph N8.0 kmh N 9.2 mph14.8 kmh 25.13 in851.0 mb 0.00 in0.0 mm 0.00 in/hr0.0 mm/hr 0.00 in0.0 mm
10:38 AM 51.1°F10.6°C -5537.2°C - 5.0 mph NNW8.0 kmh NNW 10.1 mph16.3 kmh 25.13 in851.0 mb 0.00 in0.0 mm 0.00 in/hr0.0 mm/hr 0.00 in0.0 mm
10:33 AM 51.1°F10.6°C -5537.2°C - 4.0 mph NNW6.4 kmh NNW 7.8 mph12.6 kmh 25.13 in851.0 mb 0.00 in0.0 mm 0.00 in/hr0.0 mm/hr 0.00 in0.0 mm
10:28 AM 51.6°F10.9°C -5537.2°C - 4.0 mph N6.4 kmh N 9.6 mph15.4 kmh 25.13 in851.0 mb 0.00 in0.0 mm 0.00 in/hr0.0 mm/hr 0.00 in0.0 mm
10:23 AM 50.5°F10.3°C -5537.2°C - 6.0 mph N9.7 kmh N 10.1 mph16.3 kmh 25.13 in851.0 mb 0.00 in0.0 mm 0.00 in/hr0.0 mm/hr 0.00 in0.0 mm
10:18 AM 50.7°F10.4°C -5537.2°C - 6.0 mph N9.7 kmh N 10.5 mph16.9 kmh 25.13 in851.0 mb 0.00 in0.0 mm 0.00 in/hr0.0 mm/hr 0.00 in0.0 mm
10:13 AM 50.4°F10.2°C -5537.2°C - 6.0 mph N9.7 kmh N 8.7 mph14.0 kmh 25.13 in851.0 mb 0.00 in0.0 mm 0.00 in/hr0.0 mm/hr 0.00 in0.0 mm
10:08 AM 49.3°F9.6°C -5537.2°C - 6.0 mph N9.7 kmh N 10.5 mph16.9 kmh 25.13 in851.0 mb 0.00 in0.0 mm 0.00 in/hr0.0 mm/hr 0.00 in0.0 mm
10:03 AM 49.6°F9.8°C -5537.2°C - 5.0 mph NNW8.0 kmh NNW 9.2 mph14.8 kmh 25.16 in852.0 mb 0.00 in0.0 mm 0.00 in/hr0.0 mm/hr 0.00 in0.0 mm
09:58 AM 48.7°F9.3°C -5537.2°C - 5.0 mph NNW8.0 kmh NNW 7.4 mph11.9 kmh 25.16 in852.0 mb 0.00 in0.0 mm 0.00 in/hr0.0 mm/hr 0.00 in0.0 mm
09:53 AM 48.7°F9.3°C -5537.2°C - 5.0 mph NNW8.0 kmh NNW 9.2 mph14.8 kmh 25.16 in852.0 mb 0.00 in0.0 mm 0.00 in/hr0.0 mm/hr 0.00 in0.0 mm
09:48 AM 48.2°F9.0°C -5537.2°C - 5.0 mph N8.0 kmh N 9.6 mph15.4 kmh 25.16 in852.0 mb 0.00 in0.0 mm 0.00 in/hr0.0 mm/hr 0.00 in0.0 mm
09:43 AM 47.8°F8.8°C -5537.2°C - 5.0 mph N8.0 kmh N 8.3 mph13.4 kmh 25.16 in852.0 mb 0.00 in0.0 mm 0.00 in/hr0.0 mm/hr 0.00 in0.0 mm
09:38 AM 48.2°F9.0°C -5537.2°C - 5.0 mph N8.0 kmh N 7.4 mph11.9 kmh 25.16 in852.0 mb 0.00 in0.0 mm 0.00 in/hr0.0 mm/hr 0.00 in0.0 mm
09:33 AM 47.5°F8.6°C -5537.2°C - 5.0 mph N8.0 kmh N 6.9 mph11.1 kmh 25.16 in852.0 mb 0.00 in0.0 mm 0.00 in/hr0.0 mm/hr 0.00 in0.0 mm
09:28 AM 47.3°F8.5°C -5537.2°C - 4.0 mph N6.4 kmh N 9.2 mph14.8 kmh 25.16 in852.0 mb 0.00 in0.0 mm 0.00 in/hr0.0 mm/hr 0.00 in0.0 mm
09:23 AM 48.2°F9.0°C -3.8°F-19.9°C 11% 3.0 mph N4.8 kmh N 7.4 mph11.9 kmh 25.16 in852.0 mb 0.00 in0.0 mm 0.00 in/hr0.0 mm/hr 0.00 in0.0 mm
09:18 AM 47.5°F8.6°C -4.4°F-20.2°C 11% 2.0 mph N3.2 kmh N 6.3 mph10.1 kmh 25.16 in852.0 mb 0.00 in0.0 mm 0.00 in/hr0.0 mm/hr 0.00 in0.0 mm
09:13 AM 47.8°F8.8°C -4.0°F-20.0°C 11% 2.0 mph N3.2 kmh N 4.5 mph7.2 kmh 25.16 in852.0 mb 0.00 in0.0 mm 0.00 in/hr0.0 mm/hr 0.00 in0.0 mm
09:08 AM 47.3°F8.5°C -4.5°F-20.3°C 11% 3.0 mph N4.8 kmh N 5.4 mph8.7 kmh 25.16 in852.0 mb 0.00 in0.0 mm 0.00 in/hr0.0 mm/hr 0.00 in0.0 mm
09:03 AM 47.5°F8.6°C -4.4°F-20.2°C 11% 4.0 mph N6.4 kmh N 6.3 mph10.1 kmh 25.16 in852.0 mb 0.00 in0.0 mm 0.00 in/hr0.0 mm/hr 0.00 in0.0 mm
08:57 AM 46.2°F7.9°C -3.5°F-19.7°C 12% 3.0 mph N4.8 kmh N 6.3 mph10.1 kmh 25.16 in852.0 mb 0.00 in0.0 mm 0.00 in/hr0.0 mm/hr 0.00 in0.0 mm
08:52 AM 46.6°F8.1°C -3.3°F-19.6°C 12% 2.0 mph N3.2 kmh N 4.5 mph7.2 kmh 25.16 in852.0 mb 0.00 in0.0 mm 0.00 in/hr0.0 mm/hr 0.00 in0.0 mm
08:47 AM 46.4°F8.0°C -3.5°F-19.7°C 12% 4.0 mph N6.4 kmh N 5.8 mph9.3 kmh 25.16 in852.0 mb 0.00 in0.0 mm 0.00 in/hr0.0 mm/hr 0.00 in0.0 mm
08:42 AM 44.8°F7.1°C -4.7°F-20.4°C 12% 5.0 mph N8.0 kmh N 7.4 mph11.9 kmh 25.16 in852.0 mb 0.00 in0.0 mm 0.00 in/hr0.0 mm/hr 0.00 in0.0 mm
08:37 AM 44.1°F6.7°C -5.3°F-20.7°C 12% 5.0 mph N8.0 kmh N 9.6 mph15.4 kmh 25.16 in852.0 mb 0.00 in0.0 mm 0.00 in/hr0.0 mm/hr 0.00 in0.0 mm
08:32 AM 44.2°F6.8°C -5.1°F-20.6°C 12% 5.0 mph N8.0 kmh N 10.5 mph16.9 kmh 25.16 in852.0 mb 0.00 in0.0 mm 0.00 in/hr0.0 mm/hr 0.00 in0.0 mm
08:27 AM 43.9°F6.6°C -5.4°F-20.8°C 12% 7.0 mph N11.3 kmh N 9.2 mph14.8 kmh 25.16 in852.0 mb 0.00 in0.0 mm 0.00 in/hr0.0 mm/hr 0.00 in0.0 mm
08:22 AM 43.3°F6.3°C -4.2°F-20.1°C 13% 8.0 mph N12.9 kmh N 10.5 mph16.9 kmh 25.16 in852.0 mb 0.00 in0.0 mm 0.00 in/hr0.0 mm/hr 0.00 in0.0 mm
08:17 AM 43.0°F6.1°C -4.4°F-20.2°C 13% 8.0 mph N12.9 kmh N 11.0 mph17.7 kmh 25.16 in852.0 mb 0.00 in0.0 mm 0.00 in/hr0.0 mm/hr 0.00 in0.0 mm
08:12 AM 43.7°F6.5°C -5.6°F-20.9°C 12% 7.0 mph N11.3 kmh N 10.1 mph16.3 kmh 25.16 in852.0 mb 0.00 in0.0 mm 0.00 in/hr0.0 mm/hr 0.00 in0.0 mm
08:07 AM 43.5°F6.4°C -4.0°F-20.0°C 13% 7.0 mph N11.3 kmh N 9.2 mph14.8 kmh 25.16 in852.0 mb 0.00 in0.0 mm 0.00 in/hr0.0 mm/hr 0.00 in0.0 mm
08:02 AM 43.7°F6.5°C -3.8°F-19.9°C 13% 7.0 mph N11.3 kmh N 9.6 mph15.4 kmh 25.16 in852.0 mb 0.00 in0.0 mm 0.00 in/hr0.0 mm/hr 0.00 in0.0 mm
07:57 AM 43.0°F6.1°C -4.4°F-20.2°C 13% 7.0 mph NNE11.3 kmh NNE 10.5 mph16.9 kmh 25.16 in852.0 mb 0.00 in0.0 mm 0.00 in/hr0.0 mm/hr 0.00 in0.0 mm
07:52 AM 42.8°F6.0°C -4.5°F-20.3°C 13% 6.0 mph NE9.7 kmh NE 9.2 mph14.8 kmh 25.16 in852.0 mb 0.00 in0.0 mm 0.00 in/hr0.0 mm/hr 0.00 in0.0 mm
07:47 AM 42.1°F5.6°C -5.1°F-20.6°C 13% 5.0 mph NE8.0 kmh NE 6.7 mph10.8 kmh 25.16 in852.0 mb 0.00 in0.0 mm 0.00 in/hr0.0 mm/hr 0.00 in0.0 mm
07:42 AM 41.7°F5.4°C -5.4°F-20.8°C 13% 5.0 mph E8.0 kmh E 7.8 mph12.6 kmh 25.16 in852.0 mb 0.00 in0.0 mm 0.00 in/hr0.0 mm/hr 0.00 in0.0 mm
07:37 AM 41.7°F5.4°C -5.4°F-20.8°C 13% 2.0 mph SE3.2 kmh SE 8.3 mph13.4 kmh 25.16 in852.0 mb 0.00 in0.0 mm 0.00 in/hr0.0 mm/hr 0.00 in0.0 mm
07:32 AM 41.5°F5.3°C -1.3°F-18.5°C 16% Calm Calm 3.1 mph5.0 kmh 25.13 in851.0 mb 0.00 in0.0 mm 0.00 in/hr0.0 mm/hr 0.00 in0.0 mm
07:27 AM 40.6°F4.8°C -2.0°F-18.9°C 16% Calm Calm 4.0 mph6.4 kmh 25.13 in851.0 mb 0.00 in0.0 mm 0.00 in/hr0.0 mm/hr 0.00 in0.0 mm
07:22 AM 39.4°F4.1°C -3.1°F-19.5°C 16% Calm Calm -- 25.13 in851.0 mb 0.00 in0.0 mm 0.00 in/hr0.0 mm/hr 0.00 in0.0 mm
07:17 AM 38.1°F3.4°C -0.4°F-18.0°C 19% Calm Calm -- 25.13 in851.0 mb 0.00 in0.0 mm 0.00 in/hr0.0 mm/hr 0.00 in0.0 mm
07:12 AM 37.4°F3.0°C -1.1°F-18.4°C 19% Calm Calm 3.1 mph5.0 kmh 25.13 in851.0 mb 0.00 in0.0 mm 0.00 in/hr0.0 mm/hr 0.00 in0.0 mm
07:07 AM 36.7°F2.6°C 0.5°F-17.5°C 21% Calm Calm 3.1 mph5.0 kmh 25.13 in851.0 mb 0.00 in0.0 mm 0.00 in/hr0.0 mm/hr 0.00 in0.0 mm
07:02 AM 35.8°F2.1°C 2.5°F-16.4°C 24% Calm Calm -- 25.13 in851.0 mb 0.00 in0.0 mm 0.00 in/hr0.0 mm/hr 0.00 in0.0 mm
06:57 AM 34.3°F1.3°C 6.1°F-14.4°C 30% Calm Calm 3.1 mph5.0 kmh 25.13 in851.0 mb 0.00 in0.0 mm 0.00 in/hr0.0 mm/hr 0.00 in0.0 mm
06:52 AM 33.4°F0.8°C 5.4°F-14.8°C 30% Calm Calm 3.6 mph5.8 kmh 25.13 in851.0 mb 0.00 in0.0 mm 0.00 in/hr0.0 mm/hr 0.00 in0.0 mm
06:47 AM 33.6°F0.9°C 5.5°F-14.7°C 30% Calm Calm 3.1 mph5.0 kmh 25.13 in851.0 mb 0.00 in0.0 mm 0.00 in/hr0.0 mm/hr 0.00 in0.0 mm
06:42 AM 33.3°F0.7°C 5.2°F-14.9°C 30% Calm Calm -- 25.13 in851.0 mb 0.00 in0.0 mm 0.00 in/hr0.0 mm/hr 0.00 in0.0 mm
06:37 AM 33.4°F0.8°C 5.4°F-14.8°C 30% Calm Calm 3.1 mph5.0 kmh 25.13 in851.0 mb 0.00 in0.0 mm 0.00 in/hr0.0 mm/hr 0.00 in0.0 mm
06:32 AM 33.6°F0.9°C 5.5°F-14.7°C 30% 1.0 mph SE1.6 kmh SE 3.6 mph5.8 kmh 25.13 in851.0 mb 0.00 in0.0 mm 0.00 in/hr0.0 mm/hr 0.00 in0.0 mm
06:27 AM 33.3°F0.7°C 3.0°F-16.1°C 27% 2.0 mph SE3.2 kmh SE 3.6 mph5.8 kmh 25.13 in851.0 mb 0.00 in0.0 mm 0.00 in/hr0.0 mm/hr 0.00 in0.0 mm
06:22 AM 33.6°F0.9°C 1.6°F-16.9°C 25% 2.0 mph SE3.2 kmh SE 4.5 mph7.2 kmh 25.13 in851.0 mb 0.00 in0.0 mm 0.00 in/hr0.0 mm/hr 0.00 in0.0 mm
06:17 AM 33.8°F1.0°C -6.3°F-21.3°C 17% 1.0 mph SE1.6 kmh SE 3.6 mph5.8 kmh 25.13 in851.0 mb 0.00 in0.0 mm 0.00 in/hr0.0 mm/hr 0.00 in0.0 mm
06:12 AM 34.5°F1.4°C -8.3°F-22.4°C 15% Calm Calm 3.6 mph5.8 kmh 25.13 in851.0 mb 0.00 in0.0 mm 0.00 in/hr0.0 mm/hr 0.00 in0.0 mm
06:07 AM 34.9°F1.6°C -9.4°F-23.0°C 14% 1.0 mph SE1.6 kmh SE -- 25.13 in851.0 mb 0.00 in0.0 mm 0.00 in/hr0.0 mm/hr 0.00 in0.0 mm
06:02 AM 36.3°F2.4°C -11.4°F-24.1°C 12% 2.0 mph SE3.2 kmh SE 4.9 mph7.9 kmh 25.10 in850.0 mb 0.00 in0.0 mm 0.00 in/hr0.0 mm/hr 0.00 in0.0 mm
05:57 AM 37.8°F3.2°C -11.9°F-24.4°C 11% 1.0 mph SE1.6 kmh SE 5.8 mph9.3 kmh 25.10 in850.0 mb 0.00 in0.0 mm 0.00 in/hr0.0 mm/hr 0.00 in0.0 mm
05:52 AM 37.8°F3.2°C -11.9°F-24.4°C 11% 1.0 mph SE1.6 kmh SE 4.9 mph7.9 kmh 25.10 in850.0 mb 0.00 in0.0 mm 0.00 in/hr0.0 mm/hr 0.00 in0.0 mm
05:47 AM 37.9°F3.3°C -11.7°F-24.3°C 11% 2.0 mph SE3.2 kmh SE 4.5 mph7.2 kmh 25.10 in850.0 mb 0.00 in0.0 mm 0.00 in/hr0.0 mm/hr 0.00 in0.0 mm
05:42 AM 37.9°F3.3°C -11.7°F-24.3°C 11% 2.0 mph SE3.2 kmh SE 4.9 mph7.9 kmh 25.10 in850.0 mb 0.00 in0.0 mm 0.00 in/hr0.0 mm/hr 0.00 in0.0 mm
05:37 AM 37.8°F3.2°C -11.9°F-24.4°C 11% 1.0 mph SE1.6 kmh SE 4.5 mph7.2 kmh 25.10 in850.0 mb 0.00 in0.0 mm 0.00 in/hr0.0 mm/hr 0.00 in0.0 mm
05:32 AM 37.4°F3.0°C -12.3°F-24.6°C 11% 1.0 mph SE1.6 kmh SE 3.6 mph5.8 kmh 25.10 in850.0 mb 0.00 in0.0 mm 0.00 in/hr0.0 mm/hr 0.00 in0.0 mm
05:27 AM 37.6°F3.1°C -12.1°F-24.5°C 11% 3.0 mph SE4.8 kmh SE 5.4 mph8.7 kmh 25.10 in850.0 mb 0.00 in0.0 mm 0.00 in/hr0.0 mm/hr 0.00 in0.0 mm
05:22 AM 37.8°F3.2°C -11.9°F-24.4°C 11% 3.0 mph SE4.8 kmh SE 5.8 mph9.3 kmh 25.10 in850.0 mb 0.00 in0.0 mm 0.00 in/hr0.0 mm/hr 0.00 in0.0 mm
05:17 AM 37.9°F3.3°C -11.7°F-24.3°C 11% 1.0 mph SE1.6 kmh SE 4.9 mph7.9 kmh 25.10 in850.0 mb 0.00 in0.0 mm 0.00 in/hr0.0 mm/hr 0.00 in0.0 mm
05:11 AM 37.9°F3.3°C -11.7°F-24.3°C 11% 1.0 mph SE1.6 kmh SE 4.5 mph7.2 kmh 25.10 in850.0 mb 0.00 in0.0 mm 0.00 in/hr0.0 mm/hr 0.00 in0.0 mm
05:06 AM 37.9°F3.3°C -11.7°F-24.3°C 11% 1.0 mph SE1.6 kmh SE 5.4 mph8.7 kmh 25.10 in850.0 mb 0.00 in0.0 mm 0.00 in/hr0.0 mm/hr 0.00 in0.0 mm
05:01 AM 37.9°F3.3°C -11.7°F-24.3°C 11% Calm Calm 3.6 mph5.8 kmh 25.10 in850.0 mb 0.00 in0.0 mm 0.00 in/hr0.0 mm/hr 0.00 in0.0 mm
04:56 AM 37.8°F3.2°C -11.9°F-24.4°C 11% Calm Calm 3.6 mph5.8 kmh 25.10 in850.0 mb 0.00 in0.0 mm 0.00 in/hr0.0 mm/hr 0.00 in0.0 mm
04:51 AM 37.9°F3.3°C -11.7°F-24.3°C 11% Calm Calm 3.6 mph5.8 kmh 25.10 in850.0 mb 0.00 in0.0 mm 0.00 in/hr0.0 mm/hr 0.00 in0.0 mm
04:46 AM 38.1°F3.4°C -11.7°F-24.3°C 11% 1.0 mph SE1.6 kmh SE 4.0 mph6.4 kmh 25.10 in850.0 mb 0.00 in0.0 mm 0.00 in/hr0.0 mm/hr 0.00 in0.0 mm
04:41 AM 38.5°F3.6°C -11.4°F-24.1°C 11% 1.0 mph SE1.6 kmh SE 4.0 mph6.4 kmh 25.10 in850.0 mb 0.00 in0.0 mm 0.00 in/hr0.0 mm/hr 0.00 in0.0 mm
04:36 AM 38.7°F3.7°C -11.2°F-24.0°C 11% 1.0 mph SE1.6 kmh SE 3.6 mph5.8 kmh 25.10 in850.0 mb 0.00 in0.0 mm 0.00 in/hr0.0 mm/hr 0.00 in0.0 mm
04:31 AM 39.2°F4.0°C -10.8°F-23.8°C 11% 2.0 mph SE3.2 kmh SE 4.9 mph7.9 kmh 25.10 in850.0 mb 0.00 in0.0 mm 0.00 in/hr0.0 mm/hr 0.00 in0.0 mm
04:26 AM 39.9°F4.4°C -10.3°F-23.5°C 11% 1.0 mph SE1.6 kmh SE 4.5 mph7.2 kmh 25.10 in850.0 mb 0.00 in0.0 mm 0.00 in/hr0.0 mm/hr 0.00 in0.0 mm
04:21 AM 39.7°F4.3°C -10.5°F-23.6°C 11% 1.0 mph SE1.6 kmh SE 3.1 mph5.0 kmh 25.10 in850.0 mb 0.00 in0.0 mm 0.00 in/hr0.0 mm/hr 0.00 in0.0 mm
04:16 AM 39.6°F4.2°C -10.5°F-23.6°C 11% 2.0 mph SE3.2 kmh SE 4.9 mph7.9 kmh 25.10 in850.0 mb 0.00 in0.0 mm 0.00 in/hr0.0 mm/hr 0.00 in0.0 mm
04:11 AM 39.0°F3.9°C -11.0°F-23.9°C 11% 3.0 mph SE4.8 kmh SE 5.4 mph8.7 kmh 25.10 in850.0 mb 0.00 in0.0 mm 0.00 in/hr0.0 mm/hr 0.00 in0.0 mm
04:06 AM 39.0°F3.9°C -11.0°F-23.9°C 11% 2.0 mph SE3.2 kmh SE 5.4 mph8.7 kmh 25.10 in850.0 mb 0.00 in0.0 mm 0.00 in/hr0.0 mm/hr 0.00 in0.0 mm
04:01 AM 40.5°F4.7°C -9.9°F-23.3°C 11% 2.0 mph SE3.2 kmh SE 4.0 mph6.4 kmh 25.10 in850.0 mb 0.00 in0.0 mm 0.00 in/hr0.0 mm/hr 0.00 in0.0 mm
03:56 AM 41.0°F5.0°C -9.4°F-23.0°C 11% 4.0 mph SE6.4 kmh SE 7.8 mph12.6 kmh 25.10 in850.0 mb 0.00 in0.0 mm 0.00 in/hr0.0 mm/hr 0.00 in0.0 mm
03:51 AM 41.0°F5.0°C -9.4°F-23.0°C 11% 5.0 mph SE8.0 kmh SE 6.3 mph10.1 kmh 25.10 in850.0 mb 0.00 in0.0 mm 0.00 in/hr0.0 mm/hr 0.00 in0.0 mm
03:46 AM 41.7°F5.4°C -8.9°F-22.7°C 11% 5.0 mph SE8.0 kmh SE 7.4 mph11.9 kmh 25.10 in850.0 mb 0.00 in0.0 mm 0.00 in/hr0.0 mm/hr 0.00 in0.0 mm
03:41 AM 41.7°F5.4°C -8.9°F-22.7°C 11% 4.0 mph SE6.4 kmh SE 7.4 mph11.9 kmh 25.10 in850.0 mb 0.00 in0.0 mm 0.00 in/hr0.0 mm/hr 0.00 in0.0 mm
03:36 AM 41.0°F5.0°C -9.4°F-23.0°C 11% 3.0 mph SE4.8 kmh SE 6.9 mph11.1 kmh 25.10 in850.0 mb 0.00 in0.0 mm 0.00 in/hr0.0 mm/hr 0.00 in0.0 mm
03:31 AM 41.4°F5.2°C -9.2°F-22.9°C 11% 4.0 mph SE6.4 kmh SE 4.9 mph7.9 kmh 25.10 in850.0 mb 0.00 in0.0 mm 0.00 in/hr0.0 mm/hr 0.00 in0.0 mm
03:26 AM 41.5°F5.3°C -9.0°F-22.8°C 11% 6.0 mph ESE9.7 kmh ESE 9.2 mph14.8 kmh 25.10 in850.0 mb 0.00 in0.0 mm 0.00 in/hr0.0 mm/hr 0.00 in0.0 mm
03:21 AM 41.5°F5.3°C -9.0°F-22.8°C 11% 6.0 mph ESE9.7 kmh ESE 9.2 mph14.8 kmh 25.10 in850.0 mb 0.00 in0.0 mm 0.00 in/hr0.0 mm/hr 0.00 in0.0 mm
03:16 AM 41.5°F5.3°C -9.0°F-22.8°C 11% 5.0 mph ESE8.0 kmh ESE 8.3 mph13.4 kmh 25.07 in849.0 mb 0.00 in0.0 mm 0.00 in/hr0.0 mm/hr 0.00 in0.0 mm
03:11 AM 41.9°F5.5°C -8.7°F-22.6°C 11% 5.0 mph ESE8.0 kmh ESE 9.6 mph15.4 kmh 25.07 in849.0 mb 0.00 in0.0 mm 0.00 in/hr0.0 mm/hr 0.00 in0.0 mm
03:06 AM 41.7°F5.4°C -8.9°F-22.7°C 11% 5.0 mph ESE8.0 kmh ESE 8.3 mph13.4 kmh 25.07 in849.0 mb 0.00 in0.0 mm 0.00 in/hr0.0 mm/hr 0.00 in0.0 mm
03:01 AM 41.9°F5.5°C -8.7°F-22.6°C 11% 5.0 mph ESE8.0 kmh ESE 8.3 mph13.4 kmh 25.07 in849.0 mb 0.00 in0.0 mm 0.00 in/hr0.0 mm/hr 0.00 in0.0 mm
02:56 AM 42.1°F5.6°C -5537.2°C - 6.0 mph ESE9.7 kmh ESE 8.3 mph13.4 kmh 25.07 in849.0 mb 0.00 in0.0 mm 0.00 in/hr0.0 mm/hr 0.00 in0.0 mm
02:51 AM 42.1°F5.6°C -5537.2°C - 6.0 mph ESE9.7 kmh ESE 8.7 mph14.0 kmh 25.07 in849.0 mb 0.00 in0.0 mm 0.00 in/hr0.0 mm/hr 0.00 in0.0 mm
02:46 AM 42.1°F5.6°C -5537.2°C - 5.0 mph ESE8.0 kmh ESE 11.0 mph17.7 kmh 25.07 in849.0 mb 0.00 in0.0 mm 0.00 in/hr0.0 mm/hr 0.00 in0.0 mm
02:41 AM 42.3°F5.7°C -5537.2°C - 5.0 mph ESE8.0 kmh ESE 8.3 mph13.4 kmh 25.07 in849.0 mb 0.00 in0.0 mm 0.00 in/hr0.0 mm/hr 0.00 in0.0 mm
02:36 AM 42.6°F5.9°C -5537.2°C - 5.0 mph ESE8.0 kmh ESE 9.2 mph14.8 kmh 25.07 in849.0 mb 0.00 in0.0 mm 0.00 in/hr0.0 mm/hr 0.00 in0.0 mm
02:31 AM 43.2°F6.2°C -5537.2°C - 5.0 mph ESE8.0 kmh ESE 8.7 mph14.0 kmh 25.07 in849.0 mb 0.00 in0.0 mm 0.00 in/hr0.0 mm/hr 0.00 in0.0 mm
02:26 AM 43.3°F6.3°C -5537.2°C - 6.0 mph ESE9.7 kmh ESE 8.3 mph13.4 kmh 25.07 in849.0 mb 0.00 in0.0 mm 0.00 in/hr0.0 mm/hr 0.00 in0.0 mm
02:21 AM 43.3°F6.3°C -5537.2°C - 6.0 mph ESE9.7 kmh ESE 12.1 mph19.5 kmh 25.07 in849.0 mb 0.00 in0.0 mm 0.00 in/hr0.0 mm/hr 0.00 in0.0 mm
02:16 AM 43.5°F6.4°C -5537.2°C - 6.0 mph ESE9.7 kmh ESE 9.6 mph15.4 kmh 25.07 in849.0 mb 0.00 in0.0 mm 0.00 in/hr0.0 mm/hr 0.00 in0.0 mm
02:11 AM 43.7°F6.5°C -5537.2°C - 5.0 mph ESE8.0 kmh ESE 11.0 mph17.7 kmh 25.07 in849.0 mb 0.00 in0.0 mm 0.00 in/hr0.0 mm/hr 0.00 in0.0 mm
02:06 AM 43.9°F6.6°C -5537.2°C - 6.0 mph ESE9.7 kmh ESE 8.3 mph13.4 kmh 25.07 in849.0 mb 0.00 in0.0 mm 0.00 in/hr0.0 mm/hr 0.00 in0.0 mm
02:01 AM 44.1°F6.7°C -5537.2°C - 6.0 mph ESE9.7 kmh ESE 9.2 mph14.8 kmh 25.07 in849.0 mb 0.00 in0.0 mm 0.00 in/hr0.0 mm/hr 0.00 in0.0 mm
01:56 AM 43.9°F6.6°C -5537.2°C - 5.0 mph ESE8.0 kmh ESE 9.6 mph15.4 kmh 25.07 in849.0 mb 0.00 in0.0 mm 0.00 in/hr0.0 mm/hr 0.00 in0.0 mm
01:51 AM 43.7°F6.5°C -5537.2°C - 5.0 mph ESE8.0 kmh ESE 8.3 mph13.4 kmh 25.07 in849.0 mb 0.00 in0.0 mm 0.00 in/hr0.0 mm/hr 0.00 in0.0 mm
01:46 AM 44.1°F6.7°C -5537.2°C - 5.0 mph ESE8.0 kmh ESE 10.1 mph16.3 kmh 25.07 in849.0 mb 0.00 in0.0 mm 0.00 in/hr0.0 mm/hr 0.00 in0.0 mm
01:41 AM 44.1°F6.7°C -5537.2°C - 5.0 mph ESE8.0 kmh ESE 9.2 mph14.8 kmh 25.07 in849.0 mb 0.00 in0.0 mm 0.00 in/hr0.0 mm/hr 0.00 in0.0 mm
01:36 AM 44.1°F6.7°C -5537.2°C - 5.0 mph SE8.0 kmh SE 7.8 mph12.6 kmh 25.07 in849.0 mb 0.00 in0.0 mm 0.00 in/hr0.0 mm/hr 0.00 in0.0 mm
01:31 AM 44.1°F6.7°C -5537.2°C - 5.0 mph SE8.0 kmh SE 8.7 mph14.0 kmh 25.07 in849.0 mb 0.00 in0.0 mm 0.00 in/hr0.0 mm/hr 0.00 in0.0 mm
01:26 AM 43.7°F6.5°C -5537.2°C - 4.0 mph SE6.4 kmh SE 6.9 mph11.1 kmh 25.07 in849.0 mb 0.00 in0.0 mm 0.00 in/hr0.0 mm/hr 0.00 in0.0 mm
01:21 AM 44.1°F6.7°C -5537.2°C - 4.0 mph SE6.4 kmh SE 7.4 mph11.9 kmh 25.07 in849.0 mb 0.00 in0.0 mm 0.00 in/hr0.0 mm/hr 0.00 in0.0 mm
01:16 AM 44.8°F7.1°C -5537.2°C - 4.0 mph SE6.4 kmh SE 6.3 mph10.1 kmh 25.07 in849.0 mb 0.00 in0.0 mm 0.00 in/hr0.0 mm/hr 0.00 in0.0 mm
01:11 AM 44.4°F6.9°C -5537.2°C - 3.0 mph SE4.8 kmh SE 7.4 mph11.9 kmh 25.07 in849.0 mb 0.00 in0.0 mm 0.00 in/hr0.0 mm/hr 0.00 in0.0 mm
01:06 AM 44.4°F6.9°C -5537.2°C - 3.0 mph SE4.8 kmh SE 6.3 mph10.1 kmh 25.07 in849.0 mb 0.00 in0.0 mm 0.00 in/hr0.0 mm/hr 0.00 in0.0 mm
01:01 AM 44.6°F7.0°C -5537.2°C - 4.0 mph SE6.4 kmh SE 6.3 mph10.1 kmh 25.07 in849.0 mb 0.00 in0.0 mm 0.00 in/hr0.0 mm/hr 0.00 in0.0 mm
12:56 AM 45.1°F7.3°C -5537.2°C - 4.0 mph SE6.4 kmh SE 7.4 mph11.9 kmh 25.07 in849.0 mb 0.00 in0.0 mm 0.00 in/hr0.0 mm/hr 0.00 in0.0 mm
12:51 AM 44.1°F6.7°C -5537.2°C - 2.0 mph SE3.2 kmh SE 5.8 mph9.3 kmh 25.07 in849.0 mb 0.00 in0.0 mm 0.00 in/hr0.0 mm/hr 0.00 in0.0 mm
12:46 AM 43.3°F6.3°C -5537.2°C - Calm Calm 4.5 mph7.2 kmh 25.07 in849.0 mb 0.00 in0.0 mm 0.00 in/hr0.0 mm/hr 0.00 in0.0 mm
12:41 AM 43.3°F6.3°C -5537.2°C - 2.0 mph SE3.2 kmh SE 5.4 mph8.7 kmh 25.07 in849.0 mb 0.00 in0.0 mm 0.00 in/hr0.0 mm/hr 0.00 in0.0 mm
12:36 AM 44.1°F6.7°C -5537.2°C - 3.0 mph SE4.8 kmh SE 6.7 mph10.8 kmh 25.07 in849.0 mb 0.00 in0.0 mm 0.00 in/hr0.0 mm/hr 0.00 in0.0 mm
12:31 AM 43.7°F6.5°C -5537.2°C - Calm Calm 5.8 mph9.3 kmh 25.07 in849.0 mb 0.00 in0.0 mm 0.00 in/hr0.0 mm/hr 0.00 in0.0 mm
12:26 AM 44.2°F6.8°C -5537.2°C - Calm Calm 2.7 mph4.3 kmh 25.07 in849.0 mb 0.00 in0.0 mm 0.00 in/hr0.0 mm/hr 0.00 in0.0 mm
12:21 AM 44.6°F7.0°C -5537.2°C - Calm Calm -- 25.07 in849.0 mb 0.00 in0.0 mm 0.00 in/hr0.0 mm/hr 0.00 in0.0 mm
12:16 AM 45.5°F7.5°C -5537.2°C - 1.0 mph SSE1.6 kmh SSE 2.7 mph4.3 kmh 25.07 in849.0 mb 0.00 in0.0 mm 0.00 in/hr0.0 mm/hr 0.00 in0.0 mm
12:11 AM 45.5°F7.5°C -5537.2°C - 3.0 mph SSE4.8 kmh SSE 4.5 mph7.2 kmh 25.07 in849.0 mb 0.00 in0.0 mm 0.00 in/hr0.0 mm/hr 0.00 in0.0 mm
12:06 AM 45.3°F7.4°C -5537.2°C - 2.0 mph SSE3.2 kmh SSE 4.9 mph7.9 kmh 25.04 in848.0 mb 0.00 in0.0 mm 0.00 in/hr0.0 mm/hr 0.00 in0.0 mm
12:01 AM 45.5°F7.5°C -5537.2°C - Calm Calm 4.5 mph7.2 kmh 25.04 in848.0 mb 0.00 in0.0 mm 0.00 in/hr0.0 mm/hr 0.00 in0.0 mm
WeatherForYou.com, LLC is not responsible for any damages or problems caused by this service. Current weather conditions are obtained from the closest station including government and personal stations which may have varying degrees of accuracy. Weather forecasts are derived from the NOAA NDFD and obtained through HAMweather's Aeris Weather API. Like all things, this site belongs to Jesus Christ... He just trusts me to maintain it. If you have any questions or comments email webmaster@weatherforyou.com

Copyright © 2014, WeatherForYou.com LLC. All rights reserved.